SBDN/PPB METAR and TAF weather

Enter ICAO airport designator
Station Type Date Time Source
SBDN METAR 2020/12/06 00:00 UTC NOAA

SBDN 060000Z 16004KT CAVOK 25/20 Q1014


Station Type Date Time Source
SBDN Decoded METAR 2020/12/06 00:00 UTC NOAA

Presidente Prudente, Brazil (SBDN) 22-07S 051-23W
Dec 05, 2020 - 07:00 PM EST / 2020.12.06 0000 UTC
Wind: from the SSE (160 degrees) at 5 MPH (4 KT):0
Visibility: greater than 7 mile(s):0
Temperature: 77 F (25 C)
Dew Point: 68 F (20 C)
Relative Humidity: 73%
Pressure (altimeter): 29.94 in. Hg (1014 hPa)
ob: SBDN 060000Z 16004KT CAVOK 25/20 Q1014
cycle: 0

Station Type Date Time Source
SBDN TAF 2020/12/06 00:27 UTC NOAA

TAF SBDN 052019Z 0600/0612 21008KT 8000 SCT030TN20/0609Z TX24/0612Z
BECMG 0603/0605 16003KT BKN012
RMK PHG

Example: see airport list